Time;durP1;ratioP1;P1;durP2;ratioP2;P2;SDS_P1;SDS_P2;PMS_P1;PMS_P2;Temp;Humidity;BMP_temperature;BMP_pressure;BME280_temperature;BME280_humidity;BME280_pressure;Samples;Min_cycle;Max_cycle;Signal;HPM_P1;HPM_P2
2022/02/14 00:00:07;;;;;;;18.92;11.35;;;;;;;;;;10493138;28;20050;-78
2022/02/14 00:05:07;;;;;;;19.17;11.57;;;;;;;;;;10491907;28;20583;-75
2022/02/14 00:10:08;;;;;;;22.02;12.60;;;;;;;;;;10491243;28;20120;-72
2022/02/14 00:15:09;;;;;;;20.90;10.93;;;;;;;;;;10490574;28;20036;-73
2022/02/14 00:20:10;;;;;;;20.63;10.57;;;;;;;;;;10489880;28;20503;-73
2022/02/14 00:25:11;;;;;;;24.25;12.55;;;;;;;;;;10490621;28;20023;-73
2022/02/14 00:30:11;;;;;;;16.13;9.73;;;;;;;;;;10491439;28;20506;-77
2022/02/14 00:35:13;;;;;;;16.75;11.55;;;;;;;;;;10490680;28;20646;-72
2022/02/14 00:40:13;;;;;;;19.85;12.27;;;;;;;;;;10489743;28;20033;-72
2022/02/14 00:45:15;;;;;;;23.15;13.40;;;;;;;;;;10490895;28;20093;-73
2022/02/14 00:50:16;;;;;;;24.50;13.00;;;;;;;;;;10489869;28;20024;-72
2022/02/14 00:55:17;;;;;;;30.45;16.17;;;;;;;;;;10489701;28;20238;-72
2022/02/14 01:00:18;;;;;;;29.55;14.88;;;;;;;;;;10489430;28;20048;-75
2022/02/14 01:05:18;;;;;;;30.83;17.13;;;;;;;;;;10488938;28;20020;-74
2022/02/14 01:10:19;;;;;;;38.60;18.65;;;;;;;;;;10488790;28;20044;-73
2022/02/14 01:15:20;;;;;;;35.50;18.73;;;;;;;;;;10488312;28;20044;-72
2022/02/14 01:20:20;;;;;;;28.07;15.63;;;;;;;;;;10488709;28;20074;-79
2022/02/14 01:25:20;;;;;;;30.00;14.93;;;;;;;;;;10488696;28;20024;-78
2022/02/14 01:30:21;;;;;;;24.60;13.60;;;;;;;;;;10488934;28;20029;-71
2022/02/14 01:35:21;;;;;;;21.30;12.27;;;;;;;;;;10487948;28;20020;-72
2022/02/14 01:40:21;;;;;;;21.63;11.80;;;;;;;;;;10487740;28;20487;-77
2022/02/14 01:45:21;;;;;;;18.67;12.47;;;;;;;;;;10487697;28;20482;-71
2022/02/14 01:50:22;;;;;;;25.15;12.52;;;;;;;;;;10487320;28;20020;-73
2022/02/14 01:55:22;;;;;;;22.20;13.68;;;;;;;;;;10487520;28;20116;-79
2022/02/14 02:00:23;;;;;;;22.75;12.75;;;;;;;;;;10487183;28;20058;-73
2022/02/14 02:05:23;;;;;;;19.48;11.45;;;;;;;;;;10487161;28;20024;-72
2022/02/14 02:10:24;;;;;;;28.27;12.02;;;;;;;;;;10487205;28;20016;-73
2022/02/14 02:15:25;;;;;;;25.30;10.93;;;;;;;;;;10486546;28;20047;-77
2022/02/14 02:20:25;;;;;;;18.75;10.45;;;;;;;;;;10486669;28;20052;-72
2022/02/14 02:25:26;;;;;;;25.55;10.88;;;;;;;;;;10488286;28;20036;-73
2022/02/14 02:30:26;;;;;;;24.40;13.13;;;;;;;;;;10486235;28;20119;-73
2022/02/14 02:35:26;;;;;;;29.67;14.63;;;;;;;;;;10486786;28;20109;-72
2022/02/14 02:40:26;;;;;;;24.92;13.85;;;;;;;;;;10487276;28;20093;-76
2022/02/14 02:45:27;;;;;;;28.48;13.18;;;;;;;;;;10494396;28;20029;-72
2022/02/14 02:50:27;;;;;;;20.67;12.17;;;;;;;;;;10494477;28;20476;-71
2022/02/14 02:55:27;;;;;;;21.05;11.52;;;;;;;;;;10494719;28;20399;-73
2022/02/14 03:00:28;;;;;;;26.05;14.18;;;;;;;;;;10494172;28;20036;-73
2022/02/14 03:05:28;;;;;;;23.02;12.73;;;;;;;;;;10495656;28;20085;-72
2022/02/14 03:10:28;;;;;;;24.75;13.13;;;;;;;;;;10495134;28;20073;-74
2022/02/14 03:15:28;;;;;;;25.98;16.30;;;;;;;;;;10494573;28;20549;-79
2022/02/14 03:20:29;;;;;;;34.38;17.00;;;;;;;;;;10493208;28;20403;-71
2022/02/14 03:25:29;;;;;;;26.87;13.30;;;;;;;;;;10493291;28;20452;-71
2022/02/14 03:30:29;;;;;;;30.20;14.03;;;;;;;;;;10492570;28;20029;-72
2022/02/14 03:35:29;;;;;;;33.03;15.67;;;;;;;;;;10492437;28;20035;-73
2022/02/14 03:40:30;;;;;;;34.30;14.57;;;;;;;;;;10493109;28;20028;-73
2022/02/14 03:45:31;;;;;;;29.35;15.27;;;;;;;;;;10492253;28;20073;-74
2022/02/14 03:50:31;;;;;;;28.30;15.52;;;;;;;;;;10491993;28;20439;-75
2022/02/14 03:55:32;;;;;;;28.33;13.23;;;;;;;;;;10491472;28;20024;-73
2022/02/14 04:00:32;;;;;;;24.77;12.70;;;;;;;;;;10491475;28;20028;-77
2022/02/14 04:05:32;;;;;;;24.95;13.90;;;;;;;;;;10493078;28;20050;-73
2022/02/14 04:10:33;;;;;;;30.60;15.02;;;;;;;;;;10491000;28;20024;-73
2022/02/14 04:15:33;;;;;;;29.20;13.87;;;;;;;;;;10492080;28;20037;-73
2022/02/14 04:20:33;;;;;;;28.75;16.08;;;;;;;;;;10491007;28;20114;-72
2022/02/14 04:25:33;;;;;;;23.40;14.50;;;;;;;;;;10490485;28;20028;-73
2022/02/14 04:30:34;;;;;;;22.70;14.50;;;;;;;;;;10493628;28;20043;-73
2022/02/14 04:35:35;;;;;;;25.83;14.38;;;;;;;;;;10531772;28;20109;-71
2022/02/14 04:40:39;;;;;;;28.45;12.73;;;;;;;;;;10510637;28;20115;-77
2022/02/14 04:45:39;;;;;;;23.00;13.90;;;;;;;;;;10505834;28;20117;-73
2022/02/14 04:50:40;;;;;;;28.80;13.30;;;;;;;;;;10509313;28;20166;-73
2022/02/14 04:55:40;;;;;;;24.20;13.33;;;;;;;;;;10519571;28;20024;-72
2022/02/14 05:00:40;;;;;;;21.60;14.40;;;;;;;;;;10530821;28;20765;-72
2022/02/14 05:05:40;;;;;;;24.50;12.60;;;;;;;;;;10523773;28;20033;-71
2022/02/14 05:10:41;;;;;;;25.20;14.23;;;;;;;;;;10488321;28;20032;-71
2022/02/14 05:15:41;;;;;;;22.67;14.77;;;;;;;;;;10488091;28;20036;-75
2022/02/14 05:20:42;;;;;;;25.95;16.20;;;;;;;;;;10488327;28;20278;-71
2022/02/14 05:25:42;;;;;;;19.90;12.80;;;;;;;;;;10488272;28;20039;-71
2022/02/14 05:30:42;;;;;;;33.72;13.48;;;;;;;;;;10487233;28;20029;-78
2022/02/14 05:35:43;;;;;;;22.70;13.35;;;;;;;;;;10488947;28;20025;-75
2022/02/14 05:40:43;;;;;;;26.33;13.03;;;;;;;;;;10487245;28;20085;-70
2022/02/14 05:45:43;;;;;;;27.15;16.23;;;;;;;;;;10486979;28;20265;-73
2022/02/14 05:50:43;;;;;;;30.07;13.40;;;;;;;;;;10486466;28;20036;-73
2022/02/14 05:55:44;;;;;;;23.10;13.93;;;;;;;;;;10487153;28;20029;-74
2022/02/14 06:00:44;;;;;;;27.85;14.77;;;;;;;;;;10488090;28;20086;-73
2022/02/14 06:05:44;;;;;;;27.60;13.70;;;;;;;;;;10486294;28;20056;-76
2022/02/14 06:10:45;;;;;;;28.83;15.40;;;;;;;;;;10485843;28;20036;-75
2022/02/14 06:15:45;;;;;;;26.57;16.33;;;;;;;;;;10509291;28;20052;-76
2022/02/14 06:20:45;;;;;;;27.25;13.80;;;;;;;;;;10516713;28;20032;-73
2022/02/14 06:25:46;;;;;;;37.07;19.17;;;;;;;;;;10528051;28;20034;-72
2022/02/14 06:30:46;;;;;;;37.25;17.20;;;;;;;;;;10527944;28;20290;-73
2022/02/14 06:35:47;;;;;;;30.50;18.00;;;;;;;;;;10505199;28;20469;-73
2022/02/14 06:40:48;;;;;;;32.80;18.20;;;;;;;;;;10486057;28;20511;-76
2022/02/14 06:45:48;;;;;;;34.38;18.48;;;;;;;;;;10517791;28;20028;-74
2022/02/14 06:50:49;;;;;;;33.70;16.73;;;;;;;;;;10521679;28;20395;-72
2022/02/14 06:55:49;;;;;;;27.58;14.98;;;;;;;;;;10519166;28;20027;-73
2022/02/14 07:00:49;;;;;;;30.27;15.30;;;;;;;;;;10526813;28;20020;-73
2022/02/14 07:05:50;;;;;;;32.10;18.15;;;;;;;;;;10525908;28;20035;-72
2022/02/14 07:10:55;;;;;;;30.25;18.02;;;;;;;;;;10521825;28;20503;-75
2022/02/14 07:15:56;;;;;;;32.83;17.63;;;;;;;;;;10523572;28;20027;-74
2022/02/14 07:20:56;;;;;;;40.10;17.70;;;;;;;;;;10525731;28;20032;-71
2022/02/14 07:25:56;;;;;;;38.83;15.40;;;;;;;;;;10524773;28;20093;-72
2022/02/14 07:30:57;;;;;;;33.00;21.27;;;;;;;;;;10515021;28;20028;-78
2022/02/14 07:35:57;;;;;;;31.63;18.77;;;;;;;;;;10490975;28;20263;-71
2022/02/14 07:40:57;;;;;;;36.67;18.53;;;;;;;;;;10491336;28;20074;-71
2022/02/14 07:45:58;;;;;;;34.17;18.52;;;;;;;;;;10489683;28;20024;-70
2022/02/14 07:50:58;;;;;;;35.70;19.20;;;;;;;;;;10488685;28;20119;-71
2022/02/14 07:55:58;;;;;;;36.00;19.07;;;;;;;;;;10490966;28;20056;-75
2022/02/14 08:00:59;;;;;;;38.00;20.63;;;;;;;;;;10488341;28;20063;-71
2022/02/14 08:05:59;;;;;;;49.00;19.23;;;;;;;;;;10440142;28;1180198;-72
2022/02/14 08:10:59;;;;;;;32.43;17.50;;;;;;;;;;10489726;28;20052;-75
2022/02/14 08:16:00;;;;;;;39.60;19.27;;;;;;;;;;10475849;28;20025;-71
2022/02/14 08:21:00;;;;;;;41.38;21.75;;;;;;;;;;10450025;28;20036;-77
2022/02/14 08:26:00;;;;;;;42.00;21.13;;;;;;;;;;10459106;28;20117;-73
2022/02/14 08:31:01;;;;;;;47.57;21.57;;;;;;;;;;10448120;28;20025;-72
2022/02/14 08:36:01;;;;;;;36.35;20.88;;;;;;;;;;10448570;28;20048;-71
2022/02/14 08:41:03;;;;;;;35.93;19.33;;;;;;;;;;10446685;28;20492;-77
2022/02/14 08:46:03;;;;;;;39.70;20.50;;;;;;;;;;10448324;28;20279;-71
2022/02/14 08:51:05;;;;;;;38.33;19.73;;;;;;;;;;10430540;28;20029;-73
2022/02/14 08:56:06;;;;;;;42.15;21.08;;;;;;;;;;10447393;28;20091;-73
2022/02/14 09:01:07;;;;;;;35.65;21.50;;;;;;;;;;10458662;28;20021;-71
2022/02/14 09:06:08;;;;;;;40.63;21.83;;;;;;;;;;10485294;28;20036;-73
2022/02/14 09:11:08;;;;;;;39.10;21.75;;;;;;;;;;10487548;28;20024;-73
2022/02/14 09:16:09;;;;;;;45.22;22.85;;;;;;;;;;10488059;28;20506;-73
2022/02/14 09:21:09;;;;;;;43.05;23.13;;;;;;;;;;10487512;28;20090;-75
2022/02/14 09:26:10;;;;;;;47.13;23.97;;;;;;;;;;10482054;28;20021;-79
2022/02/14 09:31:10;;;;;;;50.33;23.70;;;;;;;;;;10486753;28;20299;-72
2022/02/14 09:36:11;;;;;;;52.03;24.52;;;;;;;;;;10487572;28;20778;-74
2022/02/14 09:41:12;;;;;;;45.50;24.00;;;;;;;;;;10486776;28;20025;-75
2022/02/14 09:46:12;;;;;;;45.17;24.37;;;;;;;;;;10487928;28;20031;-71
2022/02/14 09:51:14;;;;;;;52.35;26.30;;;;;;;;;;10487429;28;20271;-71
2022/02/14 09:56:14;;;;;;;47.13;26.08;;;;;;;;;;10501507;28;20024;-72
2022/02/14 10:01:15;;;;;;;57.00;24.07;;;;;;;;;;10486482;28;20038;-71
2022/02/14 10:06:24;;;;;;;40.25;22.67;;;;;;;;;;10446187;28;20059;-72
2022/02/14 10:11:24;;;;;;;44.83;23.23;;;;;;;;;;10444787;28;20036;-75
2022/02/14 10:16:24;;;;;;;50.03;24.35;;;;;;;;;;10444835;28;20031;-76
2022/02/14 10:21:27;;;;;;;45.90;24.90;;;;;;;;;;10444822;28;20049;-71
2022/02/14 10:26:28;;;;;;;50.10;25.15;;;;;;;;;;10444600;28;20333;-71
2022/02/14 10:31:38;;;;;;;46.20;23.95;;;;;;;;;;10445944;28;20044;-75
2022/02/14 10:36:40;;;;;;;45.70;24.50;;;;;;;;;;10444360;28;20021;-71
2022/02/14 10:41:41;;;;;;;42.78;23.02;;;;;;;;;;10445853;28;20025;-75
2022/02/14 10:46:43;;;;;;;52.08;24.17;;;;;;;;;;10445962;28;20072;-74
2022/02/14 10:51:44;;;;;;;50.03;22.55;;;;;;;;;;10460162;28;20052;-74
2022/02/14 10:56:45;;;;;;;40.25;21.55;;;;;;;;;;10444232;28;20092;-77
2022/02/14 11:01:45;;;;;;;41.42;18.52;;;;;;;;;;10444764;28;20094;-72
2022/02/14 11:06:46;;;;;;;40.33;21.27;;;;;;;;;;10450983;28;20053;-71
2022/02/14 11:11:46;;;;;;;43.90;20.25;;;;;;;;;;10451604;28;20389;-77
2022/02/14 11:16:47;;;;;;;38.97;19.87;;;;;;;;;;10452324;28;20017;-70
2022/02/14 11:21:48;;;;;;;40.97;19.23;;;;;;;;;;10451053;28;20017;-78
2022/02/14 11:27:02;;;;;;;45.20;20.47;;;;;;;;;;10468001;28;20016;-71
2022/02/14 11:32:15;;;;;;;43.28;20.80;;;;;;;;;;10492664;28;20025;-73
2022/02/14 11:37:15;;;;;;;39.38;20.55;;;;;;;;;;10491797;28;20105;-78
2022/02/14 11:42:15;;;;;;;43.72;18.70;;;;;;;;;;10492248;28;20634;-73
2022/02/14 11:47:16;;;;;;;52.55;19.58;;;;;;;;;;10457299;28;20021;-72
2022/02/14 11:52:26;;;;;;;32.35;17.85;;;;;;;;;;10459414;28;20028;-74
2022/02/14 11:57:33;;;;;;;33.50;17.27;;;;;;;;;;10472091;28;20107;-72
2022/02/14 12:02:33;;;;;;;38.45;18.55;;;;;;;;;;10474761;28;20503;-74
2022/02/14 12:07:41;;;;;;;39.10;18.73;;;;;;;;;;10445874;28;20075;-75
2022/02/14 12:12:58;;;;;;;47.33;20.73;;;;;;;;;;10446059;28;20492;-75
2022/02/14 12:23:27;;;;;;;46.72;20.58;;;;;;;;;;10449088;28;20029;-71
2022/02/14 12:28:27;;;;;;;44.55;22.38;;;;;;;;;;10463977;28;20465;-76
2022/02/14 12:33:28;;;;;;;54.78;23.95;;;;;;;;;;10490548;28;20074;-75
2022/02/14 12:38:31;;;;;;;45.93;20.30;;;;;;;;;;10479453;28;20024;-76
2022/02/14 12:43:36;;;;;;;44.00;21.15;;;;;;;;;;10456327;28;20812;-76
2022/02/14 12:48:40;;;;;;;42.55;18.23;;;;;;;;;;10488384;28;20119;-71
2022/02/14 12:53:44;;;;;;;47.05;20.40;;;;;;;;;;10488355;28;20020;-71
2022/02/14 12:58:53;;;;;;;46.15;23.70;;;;;;;;;;10488427;28;20028;-70
2022/02/14 13:03:58;;;;;;;45.75;22.40;;;;;;;;;;10489486;28;20102;-77
2022/02/14 13:08:58;;;;;;;42.45;22.13;;;;;;;;;;10486979;28;20127;-70
2022/02/14 13:13:59;;;;;;;38.80;20.92;;;;;;;;;;10486270;28;20031;-69
2022/02/14 13:19:10;;;;;;;44.17;21.73;;;;;;;;;;10461301;28;20047;-74
2022/02/14 13:24:17;;;;;;;40.55;19.52;;;;;;;;;;10445610;28;20029;-75
2022/02/14 13:29:37;;;;;;;49.42;20.20;;;;;;;;;;10461616;28;20028;-70
2022/02/14 13:34:48;;;;;;;52.42;21.02;;;;;;;;;;10462129;28;20028;-71
2022/02/14 13:39:48;;;;;;;49.03;22.85;;;;;;;;;;10480523;28;20118;-71
2022/02/14 13:44:56;;;;;;;53.58;22.00;;;;;;;;;;10485450;28;20183;-71
2022/02/14 13:49:56;;;;;;;39.92;21.27;;;;;;;;;;10447604;28;20025;-76
2022/02/14 13:55:04;;;;;;;47.15;21.55;;;;;;;;;;10479268;28;20024;-73
2022/02/14 14:00:05;;;;;;;38.80;18.73;;;;;;;;;;10477743;28;20029;-75
2022/02/14 14:05:19;;;;;;;43.80;21.05;;;;;;;;;;10455417;28;20028;-71
2022/02/14 14:10:19;;;;;;;47.33;17.08;;;;;;;;;;10443925;28;20435;-69
2022/02/14 14:15:19;;;;;;;34.33;17.97;;;;;;;;;;10460535;28;20170;-75
2022/02/14 14:20:21;;;;;;;42.47;17.63;;;;;;;;;;10460460;28;20363;-75
2022/02/14 14:25:23;;;;;;;36.95;17.50;;;;;;;;;;10460273;28;20270;-75
2022/02/14 14:30:24;;;;;;;42.63;20.77;;;;;;;;;;10443014;28;20032;-76
2022/02/14 14:35:24;;;;;;;42.53;18.67;;;;;;;;;;10469580;28;20650;-70
2022/02/14 14:40:24;;;;;;;47.25;20.42;;;;;;;;;;10467086;28;20029;-74
2022/02/14 14:45:25;;;;;;;43.00;18.73;;;;;;;;;;10463050;28;20389;-73
2022/02/14 14:50:25;;;;;;;38.05;18.55;;;;;;;;;;10482524;28;20573;-76
2022/02/14 14:55:28;;;;;;;42.08;21.35;;;;;;;;;;10462324;28;20108;-72
2022/02/14 15:00:29;;;;;;;39.13;19.73;;;;;;;;;;10467092;28;20028;-74
2022/02/14 15:05:29;;;;;;;49.53;21.70;;;;;;;;;;10456023;28;20029;-71
2022/02/14 15:10:30;;;;;;;40.20;20.33;;;;;;;;;;10466756;28;20757;-76
2022/02/14 15:15:30;;;;;;;37.63;18.92;;;;;;;;;;10451443;28;20260;-70
2022/02/14 15:20:31;;;;;;;45.17;21.85;;;;;;;;;;10463604;28;20021;-75
2022/02/14 15:25:32;;;;;;;45.00;22.47;;;;;;;;;;10450322;28;20471;-76
2022/02/14 15:30:33;;;;;;;48.45;23.85;;;;;;;;;;10466480;28;20287;-71
2022/02/14 15:35:34;;;;;;;41.53;20.83;;;;;;;;;;10449419;28;20021;-72
2022/02/14 15:40:34;;;;;;;43.83;19.92;;;;;;;;;;10490504;28;20025;-69
2022/02/14 15:45:36;;;;;;;45.08;21.08;;;;;;;;;;10487411;28;20139;-73
2022/02/14 15:50:36;;;;;;;46.40;22.40;;;;;;;;;;10449857;28;20033;-77
2022/02/14 15:55:37;;;;;;;47.97;24.75;;;;;;;;;;10463793;28;20400;-74
2022/02/14 16:00:37;;;;;;;56.10;22.88;;;;;;;;;;10465235;28;20029;-71
2022/02/14 16:05:38;;;;;;;58.78;24.67;;;;;;;;;;10476524;28;20445;-71
2022/02/14 16:10:39;;;;;;;50.53;23.83;;;;;;;;;;10489447;28;20419;-70
2022/02/14 16:15:40;;;;;;;48.13;22.35;;;;;;;;;;10489434;28;20025;-72
2022/02/14 16:20:41;;;;;;;57.85;23.38;;;;;;;;;;10489147;28;20016;-72
2022/02/14 16:25:41;;;;;;;56.92;25.63;;;;;;;;;;10467978;28;20055;-70
2022/02/14 16:30:41;;;;;;;54.53;25.40;;;;;;;;;;10449353;28;20021;-72
2022/02/14 16:35:42;;;;;;;62.65;28.27;;;;;;;;;;10463186;28;20329;-71
2022/02/14 16:40:42;;;;;;;55.28;28.48;;;;;;;;;;10487291;28;20052;-71
2022/02/14 16:45:43;;;;;;;53.30;27.33;;;;;;;;;;10469879;28;20021;-73
2022/02/14 16:50:43;;;;;;;67.82;31.17;;;;;;;;;;10487871;28;20025;-72
2022/02/14 16:55:45;;;;;;;67.30;31.55;;;;;;;;;;10487939;28;20074;-73
2022/02/14 17:00:47;;;;;;;63.35;30.23;;;;;;;;;;10487867;28;20021;-72
2022/02/14 17:05:47;;;;;;;71.45;34.13;;;;;;;;;;10486069;28;20024;-71
2022/02/14 17:10:48;;;;;;;65.80;30.07;;;;;;;;;;10487798;28;20528;-72
2022/02/14 17:15:48;;;;;;;71.80;31.60;;;;;;;;;;10486513;28;20069;-76
2022/02/14 17:20:49;;;;;;;68.50;29.67;;;;;;;;;;10486820;28;20101;-71
2022/02/14 17:25:49;;;;;;;77.18;34.70;;;;;;;;;;10452352;28;20021;-74
2022/02/14 17:30:51;;;;;;;84.95;35.80;;;;;;;;;;10487629;28;20028;-75
2022/02/14 17:35:51;;;;;;;76.43;32.97;;;;;;;;;;10486221;28;20396;-73
2022/02/14 17:40:58;;;;;;;83.80;34.95;;;;;;;;;;10458713;28;20085;-77
2022/02/14 17:45:58;;;;;;;76.43;33.83;;;;;;;;;;10461173;28;20028;-72
2022/02/14 17:50:58;;;;;;;68.55;31.55;;;;;;;;;;10462131;28;20032;-76
2022/02/14 17:55:59;;;;;;;72.60;32.17;;;;;;;;;;10444397;28;20016;-72
2022/02/14 18:00:59;;;;;;;79.72;31.30;;;;;;;;;;10461426;28;20021;-73
2022/02/14 18:06:00;;;;;;;68.80;30.90;;;;;;;;;;10468662;28;20480;-75
2022/02/14 18:11:00;;;;;;;64.75;28.73;;;;;;;;;;10459024;28;20329;-72
2022/02/14 18:16:01;;;;;;;74.65;31.60;;;;;;;;;;10443897;28;20029;-72
2022/02/14 18:21:01;;;;;;;76.07;32.27;;;;;;;;;;10443642;28;20507;-71
2022/02/14 18:26:03;;;;;;;67.07;32.92;;;;;;;;;;10465418;28;20075;-75
2022/02/14 18:31:03;;;;;;;76.20;34.35;;;;;;;;;;10482667;28;20452;-74
2022/02/14 18:36:05;;;;;;;72.22;32.83;;;;;;;;;;10459868;28;20057;-70
2022/02/14 18:41:06;;;;;;;80.88;34.42;;;;;;;;;;10475314;28;20093;-70
2022/02/14 18:46:08;;;;;;;63.63;32.80;;;;;;;;;;10451653;28;20017;-71
2022/02/14 18:51:08;;;;;;;74.05;32.55;;;;;;;;;;10442827;28;20084;-72
2022/02/14 18:56:11;;;;;;;71.27;31.93;;;;;;;;;;10452513;28;20032;-73
2022/02/14 19:01:11;;;;;;;71.25;35.53;;;;;;;;;;10484388;28;20020;-70
2022/02/14 19:06:13;;;;;;;69.00;34.58;;;;;;;;;;10461936;28;20403;-74
2022/02/14 19:11:13;;;;;;;76.00;38.63;;;;;;;;;;10483970;28;20507;-72
2022/02/14 19:16:13;;;;;;;76.65;34.90;;;;;;;;;;10466365;28;20025;-77
2022/02/14 19:21:14;;;;;;;81.80;35.78;;;;;;;;;;10472711;28;20107;-71
2022/02/14 19:26:15;;;;;;;82.50;34.60;;;;;;;;;;10474335;28;20017;-72
2022/02/14 19:31:19;;;;;;;82.03;34.67;;;;;;;;;;10480884;28;20017;-78
2022/02/14 19:36:21;;;;;;;78.40;32.95;;;;;;;;;;10466536;28;20251;-70
2022/02/14 19:41:22;;;;;;;66.18;35.13;;;;;;;;;;10483826;28;20495;-72
2022/02/14 19:46:23;;;;;;;72.25;32.88;;;;;;;;;;10489410;28;20029;-72
2022/02/14 19:51:25;;;;;;;75.55;34.40;;;;;;;;;;10483031;28;20465;-72
2022/02/14 19:56:27;;;;;;;78.85;35.15;;;;;;;;;;10477817;28;20036;-74
2022/02/14 20:01:28;;;;;;;80.85;36.90;;;;;;;;;;10470378;28;20108;-74
2022/02/14 20:06:28;;;;;;;82.90;35.72;;;;;;;;;;10468831;28;20052;-71
2022/02/14 20:11:28;;;;;;;70.00;37.80;;;;;;;;;;10470665;28;20029;-74
2022/02/14 20:16:29;;;;;;;76.93;36.58;;;;;;;;;;10470537;28;20467;-71
2022/02/14 20:21:29;;;;;;;80.55;38.15;;;;;;;;;;10478172;28;20075;-73
2022/02/14 20:26:29;;;;;;;75.13;31.20;;;;;;;;;;10460677;28;20065;-75
2022/02/14 20:31:30;;;;;;;73.17;34.67;;;;;;;;;;10447434;28;20361;-71
2022/02/14 20:36:30;;;;;;;83.33;34.10;;;;;;;;;;10466962;28;20028;-71
2022/02/14 20:41:30;;;;;;;73.65;33.55;;;;;;;;;;10469685;28;20048;-71
2022/02/14 20:46:31;;;;;;;76.60;36.93;;;;;;;;;;10462898;28;20119;-69
2022/02/14 20:51:31;;;;;;;97.03;40.78;;;;;;;;;;10463738;28;20032;-74
2022/02/14 20:56:32;;;;;;;91.60;41.50;;;;;;;;;;10474921;28;20602;-71
2022/02/14 21:01:33;;;;;;;75.43;39.05;;;;;;;;;;10463025;28;20032;-71
2022/02/14 21:06:34;;;;;;;94.57;39.65;;;;;;;;;;10463142;28;20187;-71
2022/02/14 21:11:34;;;;;;;75.80;36.65;;;;;;;;;;10463536;28;20040;-70
2022/02/14 21:16:34;;;;;;;87.88;41.25;;;;;;;;;;10462413;28;20020;-73
2022/02/14 21:21:35;;;;;;;90.97;41.77;;;;;;;;;;10459397;28;20528;-71
2022/02/14 21:26:35;;;;;;;94.45;42.25;;;;;;;;;;10447713;28;20013;-74
2022/02/14 21:31:36;;;;;;;94.50;44.08;;;;;;;;;;10446153;28;20032;-71
2022/02/14 21:36:36;;;;;;;85.83;42.40;;;;;;;;;;10468966;28;20685;-76
2022/02/14 21:41:36;;;;;;;98.55;40.22;;;;;;;;;;10484163;28;20262;-75
2022/02/14 21:46:37;;;;;;;86.20;38.67;;;;;;;;;;10486871;28;20028;-74
2022/02/14 21:51:38;;;;;;;86.03;36.83;;;;;;;;;;10485706;28;20089;-70
2022/02/14 21:56:39;;;;;;;61.88;29.00;;;;;;;;;;10485411;28;20025;-70
2022/02/14 22:01:39;;;;;;;65.38;30.95;;;;;;;;;;10480031;28;20025;-70
2022/02/14 22:11:58;;;;;;;64.25;32.00;;;;;;;;;;10487373;28;20469;-72
2022/02/14 22:16:58;;;;;;;74.95;32.53;;;;;;;;;;10485594;28;20013;-74
2022/02/14 22:21:59;;;;;;;76.70;34.95;;;;;;;;;;10484071;28;20027;-76
2022/02/14 22:26:59;;;;;;;73.82;36.88;;;;;;;;;;10462258;28;20025;-75
2022/02/14 22:31:59;;;;;;;70.78;34.72;;;;;;;;;;10470670;28;20032;-75
2022/02/14 22:37:00;;;;;;;75.50;37.08;;;;;;;;;;10486208;28;20032;-76
2022/02/14 22:42:03;;;;;;;63.33;33.27;;;;;;;;;;10485752;28;20028;-70
2022/02/14 22:47:04;;;;;;;67.40;32.95;;;;;;;;;;10485752;28;20029;-74
2022/02/14 22:52:05;;;;;;;73.35;34.45;;;;;;;;;;10485752;28;20025;-73
2022/02/14 22:57:08;;;;;;;73.03;34.17;;;;;;;;;;10484981;28;20090;-76
2022/02/14 23:18:05;;;;;;;51.45;26.90;;;;;;;;;;10453136;28;20023;-71
2022/02/14 23:23:05;;;;;;;57.60;28.43;;;;;;;;;;10466918;28;20020;-72
2022/02/14 23:28:05;;;;;;;42.58;24.48;;;;;;;;;;10450748;28;20078;-70
2022/02/14 23:33:06;;;;;;;48.83;23.40;;;;;;;;;;10460410;28;20044;-68
2022/02/14 23:38:06;;;;;;;53.90;26.50;;;;;;;;;;10472553;28;20017;-76
2022/02/14 23:43:06;;;;;;;50.60;26.17;;;;;;;;;;10487897;28;20119;-72
2022/02/14 23:48:06;;;;;;;50.03;23.95;;;;;;;;;;10491208;28;20027;-73
2022/02/14 23:53:07;;;;;;;49.77;24.60;;;;;;;;;;10462556;28;20126;-71
2022/02/14 23:58:08;;;;;;;49.47;24.13;;;;;;;;;;10449681;28;20121;-78
